Weather at Kyaukpyu Airport

Public forecast

Using degrees Celsius for public forecast. Weather courtesy of forecast.io.

Closest aviation weather report (METAR) to Kyaukpyu Airport

Closest report is Mae Hong Son Airport, 251.7 nm (466.1 km) E. Retrieved 2021/01/19 06:00 UTC (42 minutes ago):

VTCH 190600Z VRB02KT 9000 FEW025 27/15 Q1014

Closest aviation forecast (TAF) to Kyaukpyu Airport

Closest forecast is Mae Hong Son Airport, 251.7 nm (466.1 km) E. Retrieved 2021/01/19 06:00 UTC (42 minutes ago):

TAF VTBO 190500Z 1906/2006 03010KT 7000 FEW025 TAF VTCH 190500Z 1906/2006 27005KT 9000 FEW025